sensor_id;sensor_type;location;lat;lon;timestamp;P1;durP1;ratioP1;P2;durP2;ratioP2
36411;SDS011;22445;52.100;5.176;2023-07-31T00:00:11;5.47;;;3.20;;
36411;SDS011;22445;52.100;5.176;2023-07-31T00:02:37;5.57;;;3.10;;
36411;SDS011;22445;52.100;5.176;2023-07-31T00:05:03;6.07;;;3.03;;
36411;SDS011;22445;52.100;5.176;2023-07-31T00:07:29;10.57;;;4.65;;
36411;SDS011;22445;52.100;5.176;2023-07-31T00:09:55;13.10;;;4.80;;
36411;SDS011;22445;52.100;5.176;2023-07-31T00:12:22;14.52;;;5.60;;
36411;SDS011;22445;52.100;5.176;2023-07-31T00:14:48;15.63;;;5.82;;
36411;SDS011;22445;52.100;5.176;2023-07-31T00:17:14;19.77;;;6.93;;
36411;SDS011;22445;52.100;5.176;2023-07-31T00:19:39;27.35;;;8.07;;
36411;SDS011;22445;52.100;5.176;2023-07-31T00:22:05;27.75;;;7.97;;
36411;SDS011;22445;52.100;5.176;2023-07-31T00:24:31;25.38;;;8.50;;
36411;SDS011;22445;52.100;5.176;2023-07-31T00:26:56;35.70;;;11.05;;
36411;SDS011;22445;52.100;5.176;2023-07-31T00:29:22;35.00;;;11.00;;
36411;SDS011;22445;52.100;5.176;2023-07-31T00:31:48;39.00;;;10.50;;
36411;SDS011;22445;52.100;5.176;2023-07-31T00:34:13;50.15;;;12.05;;
36411;SDS011;22445;52.100;5.176;2023-07-31T00:36:39;40.80;;;12.23;;
36411;SDS011;22445;52.100;5.176;2023-07-31T00:39:04;41.92;;;11.30;;
36411;SDS011;22445;52.100;5.176;2023-07-31T00:41:30;34.83;;;11.40;;
36411;SDS011;22445;52.100;5.176;2023-07-31T00:43:56;43.28;;;10.45;;
36411;SDS011;22445;52.100;5.176;2023-07-31T00:46:21;37.00;;;10.95;;
36411;SDS011;22445;52.100;5.176;2023-07-31T00:48:47;31.05;;;9.98;;
36411;SDS011;22445;52.100;5.176;2023-07-31T00:51:14;35.97;;;10.32;;
36411;SDS011;22445;52.100;5.176;2023-07-31T00:53:40;40.92;;;11.15;;
36411;SDS011;22445;52.100;5.176;2023-07-31T00:56:05;43.70;;;10.10;;
36411;SDS011;22445;52.100;5.176;2023-07-31T00:58:31;33.45;;;10.05;;
36411;SDS011;22445;52.100;5.176;2023-07-31T01:00:57;33.03;;;10.00;;
36411;SDS011;22445;52.100;5.176;2023-07-31T01:03:22;41.45;;;11.07;;
36411;SDS011;22445;52.100;5.176;2023-07-31T01:09:02;35.47;;;10.60;;
36411;SDS011;22445;52.100;5.176;2023-07-31T01:11:50;32.95;;;9.13;;
36411;SDS011;22445;52.100;5.176;2023-07-31T01:14:18;30.73;;;9.80;;
36411;SDS011;22445;52.100;5.176;2023-07-31T01:16:44;41.58;;;11.05;;
36411;SDS011;22445;52.100;5.176;2023-07-31T01:19:09;38.15;;;10.63;;
36411;SDS011;22445;52.100;5.176;2023-07-31T01:27:36;37.03;;;10.43;;
36411;SDS011;22445;52.100;5.176;2023-07-31T01:30:11;37.13;;;10.35;;
36411;SDS011;22445;52.100;5.176;2023-07-31T01:32:40;33.30;;;10.20;;
36411;SDS011;22445;52.100;5.176;2023-07-31T01:35:07;34.30;;;9.65;;
36411;SDS011;22445;52.100;5.176;2023-07-31T01:37:34;29.98;;;10.23;;
36411;SDS011;22445;52.100;5.176;2023-07-31T01:39:59;30.25;;;10.07;;
36411;SDS011;22445;52.100;5.176;2023-07-31T01:42:25;36.42;;;10.55;;
36411;SDS011;22445;52.100;5.176;2023-07-31T01:44:51;31.10;;;10.20;;
36411;SDS011;22445;52.100;5.176;2023-07-31T01:47:16;31.88;;;11.00;;
36411;SDS011;22445;52.100;5.176;2023-07-31T01:49:42;35.30;;;11.77;;
36411;SDS011;22445;52.100;5.176;2023-07-31T01:52:08;30.60;;;10.18;;
36411;SDS011;22445;52.100;5.176;2023-07-31T01:54:33;30.85;;;9.10;;
36411;SDS011;22445;52.100;5.176;2023-07-31T01:56:59;28.40;;;10.48;;
36411;SDS011;22445;52.100;5.176;2023-07-31T01:59:24;31.67;;;9.77;;
36411;SDS011;22445;52.100;5.176;2023-07-31T02:01:50;25.20;;;8.98;;
36411;SDS011;22445;52.100;5.176;2023-07-31T02:04:16;28.70;;;8.63;;
36411;SDS011;22445;52.100;5.176;2023-07-31T02:06:43;26.55;;;8.93;;
36411;SDS011;22445;52.100;5.176;2023-07-31T02:09:09;25.38;;;8.02;;
36411;SDS011;22445;52.100;5.176;2023-07-31T02:11:34;27.98;;;7.70;;
36411;SDS011;22445;52.100;5.176;2023-07-31T02:14:00;23.15;;;7.88;;
36411;SDS011;22445;52.100;5.176;2023-07-31T02:16:25;26.02;;;8.70;;
36411;SDS011;22445;52.100;5.176;2023-07-31T02:18:51;25.70;;;7.75;;
36411;SDS011;22445;52.100;5.176;2023-07-31T02:21:16;29.33;;;7.70;;
36411;SDS011;22445;52.100;5.176;2023-07-31T02:23:42;28.23;;;8.07;;
36411;SDS011;22445;52.100;5.176;2023-07-31T02:26:08;21.27;;;7.63;;
36411;SDS011;22445;52.100;5.176;2023-07-31T02:28:33;25.63;;;8.13;;
36411;SDS011;22445;52.100;5.176;2023-07-31T02:30:59;26.33;;;8.05;;
36411;SDS011;22445;52.100;5.176;2023-07-31T02:33:24;29.38;;;8.07;;
36411;SDS011;22445;52.100;5.176;2023-07-31T02:35:50;19.42;;;8.68;;
36411;SDS011;22445;52.100;5.176;2023-07-31T02:38:15;31.17;;;9.38;;
36411;SDS011;22445;52.100;5.176;2023-07-31T02:40:41;30.00;;;8.85;;
36411;SDS011;22445;52.100;5.176;2023-07-31T02:43:07;26.25;;;8.82;;
36411;SDS011;22445;52.100;5.176;2023-07-31T02:45:33;33.80;;;8.70;;
36411;SDS011;22445;52.100;5.176;2023-07-31T02:47:59;34.72;;;8.63;;
36411;SDS011;22445;52.100;5.176;2023-07-31T02:50:24;31.60;;;9.50;;
36411;SDS011;22445;52.100;5.176;2023-07-31T02:52:50;34.08;;;10.40;;
36411;SDS011;22445;52.100;5.176;2023-07-31T02:55:15;35.40;;;10.25;;
36411;SDS011;22445;52.100;5.176;2023-07-31T02:57:41;40.78;;;9.75;;
36411;SDS011;22445;52.100;5.176;2023-07-31T03:00:07;31.10;;;10.00;;
36411;SDS011;22445;52.100;5.176;2023-07-31T03:02:33;34.97;;;9.95;;
36411;SDS011;22445;52.100;5.176;2023-07-31T03:04:58;31.60;;;10.25;;
36411;SDS011;22445;52.100;5.176;2023-07-31T03:07:24;31.35;;;10.55;;
36411;SDS011;22445;52.100;5.176;2023-07-31T03:09:50;34.10;;;10.65;;
36411;SDS011;22445;52.100;5.176;2023-07-31T03:12:15;35.63;;;10.57;;
36411;SDS011;22445;52.100;5.176;2023-07-31T03:14:41;37.33;;;9.65;;
36411;SDS011;22445;52.100;5.176;2023-07-31T03:17:06;29.35;;;8.55;;
36411;SDS011;22445;52.100;5.176;2023-07-31T03:19:32;36.45;;;10.05;;
36411;SDS011;22445;52.100;5.176;2023-07-31T03:21:58;30.27;;;9.38;;
36411;SDS011;22445;52.100;5.176;2023-07-31T03:24:24;27.80;;;9.15;;
36411;SDS011;22445;52.100;5.176;2023-07-31T03:26:50;27.80;;;9.77;;
36411;SDS011;22445;52.100;5.176;2023-07-31T03:29:16;28.50;;;10.18;;
36411;SDS011;22445;52.100;5.176;2023-07-31T03:31:42;35.00;;;11.43;;
36411;SDS011;22445;52.100;5.176;2023-07-31T03:34:07;28.42;;;10.43;;
36411;SDS011;22445;52.100;5.176;2023-07-31T03:36:33;35.38;;;10.30;;
36411;SDS011;22445;52.100;5.176;2023-07-31T03:38:58;28.52;;;10.30;;
36411;SDS011;22445;52.100;5.176;2023-07-31T03:41:24;27.50;;;9.88;;
36411;SDS011;22445;52.100;5.176;2023-07-31T03:43:50;37.08;;;10.75;;
36411;SDS011;22445;52.100;5.176;2023-07-31T03:46:17;26.08;;;9.52;;
36411;SDS011;22445;52.100;5.176;2023-07-31T03:48:42;35.72;;;10.18;;
36411;SDS011;22445;52.100;5.176;2023-07-31T03:51:08;28.30;;;8.75;;
36411;SDS011;22445;52.100;5.176;2023-07-31T03:53:34;23.77;;;8.68;;
36411;SDS011;22445;52.100;5.176;2023-07-31T03:55:59;24.98;;;8.15;;
36411;SDS011;22445;52.100;5.176;2023-07-31T03:58:25;25.73;;;8.60;;
36411;SDS011;22445;52.100;5.176;2023-07-31T04:00:50;28.50;;;8.48;;
36411;SDS011;22445;52.100;5.176;2023-07-31T04:03:16;26.27;;;8.55;;
36411;SDS011;22445;52.100;5.176;2023-07-31T04:05:41;29.70;;;9.43;;
36411;SDS011;22445;52.100;5.176;2023-07-31T04:08:07;24.80;;;8.35;;
36411;SDS011;22445;52.100;5.176;2023-07-31T04:10:33;35.08;;;9.73;;
36411;SDS011;22445;52.100;5.176;2023-07-31T04:12:59;25.58;;;9.30;;
36411;SDS011;22445;52.100;5.176;2023-07-31T04:15:25;27.48;;;9.68;;
36411;SDS011;22445;52.100;5.176;2023-07-31T04:17:58;28.33;;;9.05;;
36411;SDS011;22445;52.100;5.176;2023-07-31T04:20:23;33.05;;;9.07;;
36411;SDS011;22445;52.100;5.176;2023-07-31T04:22:49;22.30;;;9.60;;
36411;SDS011;22445;52.100;5.176;2023-07-31T04:25:15;24.20;;;9.00;;
36411;SDS011;22445;52.100;5.176;2023-07-31T04:27:40;20.58;;;7.82;;
36411;SDS011;22445;52.100;5.176;2023-07-31T04:30:06;17.77;;;8.18;;
36411;SDS011;22445;52.100;5.176;2023-07-31T04:32:32;24.65;;;8.10;;
36411;SDS011;22445;52.100;5.176;2023-07-31T04:34:58;22.33;;;8.50;;
36411;SDS011;22445;52.100;5.176;2023-07-31T04:37:24;20.27;;;8.45;;
36411;SDS011;22445;52.100;5.176;2023-07-31T04:39:49;28.30;;;8.27;;
36411;SDS011;22445;52.100;5.176;2023-07-31T04:42:15;23.00;;;8.63;;
36411;SDS011;22445;52.100;5.176;2023-07-31T04:44:40;23.23;;;8.00;;
36411;SDS011;22445;52.100;5.176;2023-07-31T04:47:06;21.88;;;9.35;;
36411;SDS011;22445;52.100;5.176;2023-07-31T04:49:32;21.60;;;8.98;;
36411;SDS011;22445;52.100;5.176;2023-07-31T04:51:58;25.38;;;9.07;;
36411;SDS011;22445;52.100;5.176;2023-07-31T04:54:23;18.95;;;8.40;;
36411;SDS011;22445;52.100;5.176;2023-07-31T04:56:49;20.55;;;8.00;;
36411;SDS011;22445;52.100;5.176;2023-07-31T04:59:14;23.35;;;8.45;;
36411;SDS011;22445;52.100;5.176;2023-07-31T05:01:40;20.48;;;8.32;;
36411;SDS011;22445;52.100;5.176;2023-07-31T05:04:06;25.13;;;8.52;;
36411;SDS011;22445;52.100;5.176;2023-07-31T05:06:32;21.85;;;8.57;;
36411;SDS011;22445;52.100;5.176;2023-07-31T05:08:57;23.40;;;8.82;;
36411;SDS011;22445;52.100;5.176;2023-07-31T05:11:23;18.38;;;8.05;;
36411;SDS011;22445;52.100;5.176;2023-07-31T05:13:49;18.38;;;7.60;;
36411;SDS011;22445;52.100;5.176;2023-07-31T05:16:14;27.27;;;8.40;;
36411;SDS011;22445;52.100;5.176;2023-07-31T05:18:40;17.40;;;6.88;;
36411;SDS011;22445;52.100;5.176;2023-07-31T05:21:06;14.50;;;6.05;;
36411;SDS011;22445;52.100;5.176;2023-07-31T05:23:32;13.52;;;6.32;;
36411;SDS011;22445;52.100;5.176;2023-07-31T05:26:07;15.20;;;6.40;;
36411;SDS011;22445;52.100;5.176;2023-07-31T05:28:35;14.50;;;5.60;;
36411;SDS011;22445;52.100;5.176;2023-07-31T05:31:01;12.98;;;5.43;;
36411;SDS011;22445;52.100;5.176;2023-07-31T05:33:27;10.60;;;5.50;;
36411;SDS011;22445;52.100;5.176;2023-07-31T05:35:53;13.57;;;5.45;;
36411;SDS011;22445;52.100;5.176;2023-07-31T05:38:19;10.57;;;6.10;;
36411;SDS011;22445;52.100;5.176;2023-07-31T05:40:44;13.85;;;6.03;;
36411;SDS011;22445;52.100;5.176;2023-07-31T05:43:10;13.48;;;6.05;;
36411;SDS011;22445;52.100;5.176;2023-07-31T05:45:35;12.05;;;6.07;;
36411;SDS011;22445;52.100;5.176;2023-07-31T05:48:02;14.98;;;6.22;;
36411;SDS011;22445;52.100;5.176;2023-07-31T05:50:28;17.27;;;6.70;;
36411;SDS011;22445;52.100;5.176;2023-07-31T05:52:53;14.27;;;6.47;;
36411;SDS011;22445;52.100;5.176;2023-07-31T05:55:19;12.63;;;6.45;;
36411;SDS011;22445;52.100;5.176;2023-07-31T05:57:46;14.57;;;6.57;;
36411;SDS011;22445;52.100;5.176;2023-07-31T06:00:12;19.15;;;7.05;;
36411;SDS011;22445;52.100;5.176;2023-07-31T06:02:38;15.23;;;7.07;;
36411;SDS011;22445;52.100;5.176;2023-07-31T06:05:04;14.02;;;6.57;;
36411;SDS011;22445;52.100;5.176;2023-07-31T06:07:31;14.30;;;7.20;;
36411;SDS011;22445;52.100;5.176;2023-07-31T06:09:57;15.65;;;6.25;;
36411;SDS011;22445;52.100;5.176;2023-07-31T06:12:30;16.67;;;6.80;;
36411;SDS011;22445;52.100;5.176;2023-07-31T06:14:59;12.43;;;6.85;;
36411;SDS011;22445;52.100;5.176;2023-07-31T06:17:25;10.15;;;5.45;;
36411;SDS011;22445;52.100;5.176;2023-07-31T06:19:54;14.20;;;6.25;;
36411;SDS011;22445;52.100;5.176;2023-07-31T06:22:19;12.88;;;6.35;;
36411;SDS011;22445;52.100;5.176;2023-07-31T06:24:46;11.73;;;6.00;;
36411;SDS011;22445;52.100;5.176;2023-07-31T06:27:11;14.20;;;5.68;;
36411;SDS011;22445;52.100;5.176;2023-07-31T06:29:37;13.23;;;5.53;;
36411;SDS011;22445;52.100;5.176;2023-07-31T06:32:03;9.43;;;5.70;;
36411;SDS011;22445;52.100;5.176;2023-07-31T06:34:29;15.05;;;6.53;;
36411;SDS011;22445;52.100;5.176;2023-07-31T06:36:55;12.48;;;5.72;;
36411;SDS011;22445;52.100;5.176;2023-07-31T06:39:21;11.27;;;5.88;;
36411;SDS011;22445;52.100;5.176;2023-07-31T06:41:46;11.43;;;5.32;;
36411;SDS011;22445;52.100;5.176;2023-07-31T06:44:12;11.70;;;5.68;;
36411;SDS011;22445;52.100;5.176;2023-07-31T06:46:38;10.27;;;5.60;;
36411;SDS011;22445;52.100;5.176;2023-07-31T06:49:03;7.97;;;4.90;;
36411;SDS011;22445;52.100;5.176;2023-07-31T06:51:29;9.93;;;5.22;;
36411;SDS011;22445;52.100;5.176;2023-07-31T06:53:57;12.57;;;5.70;;
36411;SDS011;22445;52.100;5.176;2023-07-31T06:56:23;11.70;;;5.63;;
36411;SDS011;22445;52.100;5.176;2023-07-31T06:58:48;9.75;;;5.43;;
36411;SDS011;22445;52.100;5.176;2023-07-31T07:01:14;11.57;;;4.78;;
36411;SDS011;22445;52.100;5.176;2023-07-31T07:03:39;10.27;;;5.32;;
36411;SDS011;22445;52.100;5.176;2023-07-31T07:06:05;16.45;;;5.50;;
36411;SDS011;22445;52.100;5.176;2023-07-31T07:08:31;12.93;;;5.20;;
36411;SDS011;22445;52.100;5.176;2023-07-31T07:10:56;15.88;;;5.55;;
36411;SDS011;22445;52.100;5.176;2023-07-31T07:13:22;12.18;;;4.82;;
36411;SDS011;22445;52.100;5.176;2023-07-31T07:15:51;10.60;;;4.82;;
36411;SDS011;22445;52.100;5.176;2023-07-31T07:18:17;8.07;;;5.00;;
36411;SDS011;22445;52.100;5.176;2023-07-31T07:20:54;11.07;;;4.38;;
36411;SDS011;22445;52.100;5.176;2023-07-31T07:23:22;7.38;;;4.50;;
36411;SDS011;22445;52.100;5.176;2023-07-31T07:25:47;11.18;;;4.88;;
36411;SDS011;22445;52.100;5.176;2023-07-31T07:28:13;10.35;;;4.63;;
36411;SDS011;22445;52.100;5.176;2023-07-31T07:30:39;7.05;;;3.38;;
36411;SDS011;22445;52.100;5.176;2023-07-31T07:33:05;5.70;;;3.83;;
36411;SDS011;22445;52.100;5.176;2023-07-31T07:35:33;8.32;;;3.50;;
36411;SDS011;22445;52.100;5.176;2023-07-31T07:38:00;7.90;;;3.97;;
36411;SDS011;22445;52.100;5.176;2023-07-31T07:40:26;8.07;;;3.92;;
36411;SDS011;22445;52.100;5.176;2023-07-31T07:42:52;6.85;;;3.72;;
36411;SDS011;22445;52.100;5.176;2023-07-31T07:45:18;5.47;;;3.22;;
36411;SDS011;22445;52.100;5.176;2023-07-31T07:47:43;5.68;;;3.20;;
36411;SDS011;22445;52.100;5.176;2023-07-31T07:50:09;4.68;;;3.10;;
36411;SDS011;22445;52.100;5.176;2023-07-31T07:52:34;4.43;;;3.15;;
36411;SDS011;22445;52.100;5.176;2023-07-31T07:55:00;4.35;;;2.83;;
36411;SDS011;22445;52.100;5.176;2023-07-31T07:57:26;4.60;;;2.70;;
36411;SDS011;22445;52.100;5.176;2023-07-31T07:59:52;4.20;;;2.80;;
36411;SDS011;22445;52.100;5.176;2023-07-31T08:02:18;4.60;;;2.85;;
36411;SDS011;22445;52.100;5.176;2023-07-31T08:04:43;7.65;;;2.67;;
36411;SDS011;22445;52.100;5.176;2023-07-31T08:07:12;3.78;;;2.28;;
36411;SDS011;22445;52.100;5.176;2023-07-31T08:09:38;2.58;;;2.25;;
36411;SDS011;22445;52.100;5.176;2023-07-31T08:12:04;4.68;;;2.60;;
36411;SDS011;22445;52.100;5.176;2023-07-31T08:14:30;6.07;;;2.25;;
36411;SDS011;22445;52.100;5.176;2023-07-31T08:16:56;2.53;;;2.20;;
36411;SDS011;22445;52.100;5.176;2023-07-31T08:19:22;4.45;;;2.47;;
36411;SDS011;22445;52.100;5.176;2023-07-31T08:21:47;4.45;;;2.58;;
36411;SDS011;22445;52.100;5.176;2023-07-31T08:24:13;5.50;;;2.05;;
36411;SDS011;22445;52.100;5.176;2023-07-31T08:26:38;4.70;;;2.55;;
36411;SDS011;22445;52.100;5.176;2023-07-31T08:29:04;2.20;;;2.00;;
36411;SDS011;22445;52.100;5.176;2023-07-31T08:31:30;2.45;;;2.25;;
36411;SDS011;22445;52.100;5.176;2023-07-31T08:33:55;4.55;;;2.05;;
36411;SDS011;22445;52.100;5.176;2023-07-31T08:36:21;1.88;;;1.63;;
36411;SDS011;22445;52.100;5.176;2023-07-31T08:38:47;2.30;;;1.88;;
36411;SDS011;22445;52.100;5.176;2023-07-31T08:41:12;2.20;;;1.90;;
36411;SDS011;22445;52.100;5.176;2023-07-31T08:43:38;2.97;;;1.92;;
36411;SDS011;22445;52.100;5.176;2023-07-31T08:46:04;1.60;;;1.50;;
36411;SDS011;22445;52.100;5.176;2023-07-31T08:48:30;2.67;;;2.05;;
36411;SDS011;22445;52.100;5.176;2023-07-31T08:50:57;2.42;;;1.90;;
36411;SDS011;22445;52.100;5.176;2023-07-31T08:53:22;4.57;;;2.13;;
36411;SDS011;22445;52.100;5.176;2023-07-31T08:55:48;1.95;;;1.70;;
36411;SDS011;22445;52.100;5.176;2023-07-31T08:58:14;3.00;;;1.95;;
36411;SDS011;22445;52.100;5.176;2023-07-31T09:00:41;3.13;;;2.30;;
36411;SDS011;22445;52.100;5.176;2023-07-31T09:03:15;3.42;;;2.05;;
36411;SDS011;22445;52.100;5.176;2023-07-31T09:05:46;2.45;;;1.98;;
36411;SDS011;22445;52.100;5.176;2023-07-31T09:08:12;3.45;;;2.10;;
36411;SDS011;22445;52.100;5.176;2023-07-31T09:10:43;2.60;;;2.20;;
36411;SDS011;22445;52.100;5.176;2023-07-31T09:13:10;5.15;;;2.30;;
36411;SDS011;22445;52.100;5.176;2023-07-31T09:15:37;4.25;;;2.50;;
36411;SDS011;22445;52.100;5.176;2023-07-31T09:18:03;3.22;;;2.28;;
36411;SDS011;22445;52.100;5.176;2023-07-31T09:20:30;3.53;;;2.10;;
36411;SDS011;22445;52.100;5.176;2023-07-31T09:22:56;3.78;;;2.90;;
36411;SDS011;22445;52.100;5.176;2023-07-31T09:25:24;2.45;;;2.08;;
36411;SDS011;22445;52.100;5.176;2023-07-31T09:27:51;4.05;;;2.67;;
36411;SDS011;22445;52.100;5.176;2023-07-31T09:30:19;2.40;;;2.20;;
36411;SDS011;22445;52.100;5.176;2023-07-31T09:32:45;2.50;;;2.30;;
36411;SDS011;22445;52.100;5.176;2023-07-31T09:35:21;2.28;;;2.05;;
36411;SDS011;22445;52.100;5.176;2023-07-31T09:37:58;2.60;;;2.17;;
36411;SDS011;22445;52.100;5.176;2023-07-31T09:40:35;3.35;;;2.60;;
36411;SDS011;22445;52.100;5.176;2023-07-31T09:43:02;3.80;;;2.50;;
36411;SDS011;22445;52.100;5.176;2023-07-31T09:45:39;4.07;;;2.55;;
36411;SDS011;22445;52.100;5.176;2023-07-31T09:48:08;3.03;;;2.72;;
36411;SDS011;22445;52.100;5.176;2023-07-31T09:50:38;3.45;;;3.15;;
36411;SDS011;22445;52.100;5.176;2023-07-31T09:53:05;2.47;;;2.28;;
36411;SDS011;22445;52.100;5.176;2023-07-31T09:55:32;3.85;;;2.28;;
36411;SDS011;22445;52.100;5.176;2023-07-31T09:57:58;2.65;;;2.40;;
36411;SDS011;22445;52.100;5.176;2023-07-31T10:00:24;3.13;;;2.47;;
36411;SDS011;22445;52.100;5.176;2023-07-31T10:02:53;3.85;;;2.55;;
36411;SDS011;22445;52.100;5.176;2023-07-31T10:05:20;3.88;;;2.70;;
36411;SDS011;22445;52.100;5.176;2023-07-31T10:07:51;3.58;;;3.25;;
36411;SDS011;22445;52.100;5.176;2023-07-31T10:10:19;8.40;;;4.13;;
36411;SDS011;22445;52.100;5.176;2023-07-31T10:12:45;4.95;;;4.05;;
36411;SDS011;22445;52.100;5.176;2023-07-31T10:15:12;4.20;;;3.78;;
36411;SDS011;22445;52.100;5.176;2023-07-31T10:17:38;6.05;;;4.25;;
36411;SDS011;22445;52.100;5.176;2023-07-31T10:20:03;6.28;;;5.68;;
36411;SDS011;22445;52.100;5.176;2023-07-31T10:22:30;6.40;;;5.07;;
36411;SDS011;22445;52.100;5.176;2023-07-31T10:24:57;6.78;;;5.22;;
36411;SDS011;22445;52.100;5.176;2023-07-31T10:27:24;11.95;;;7.15;;
36411;SDS011;22445;52.100;5.176;2023-07-31T10:29:50;6.97;;;6.28;;
36411;SDS011;22445;52.100;5.176;2023-07-31T10:32:17;7.28;;;6.30;;
36411;SDS011;22445;52.100;5.176;2023-07-31T10:34:43;7.20;;;5.80;;
36411;SDS011;22445;52.100;5.176;2023-07-31T10:40:09;8.10;;;5.70;;
36411;SDS011;22445;52.100;5.176;2023-07-31T10:42:47;6.85;;;5.75;;
36411;SDS011;22445;52.100;5.176;2023-07-31T10:45:23;7.28;;;5.95;;
36411;SDS011;22445;52.100;5.176;2023-07-31T10:48:16;7.07;;;5.50;;
36411;SDS011;22445;52.100;5.176;2023-07-31T10:50:49;6.57;;;5.05;;
36411;SDS011;22445;52.100;5.176;2023-07-31T10:53:25;6.28;;;4.25;;
36411;SDS011;22445;52.100;5.176;2023-07-31T10:55:52;5.95;;;4.55;;
36411;SDS011;22445;52.100;5.176;2023-07-31T10:58:21;5.07;;;4.55;;
36411;SDS011;22445;52.100;5.176;2023-07-31T11:00:47;4.65;;;4.07;;
36411;SDS011;22445;52.100;5.176;2023-07-31T11:03:13;5.43;;;4.07;;
36411;SDS011;22445;52.100;5.176;2023-07-31T11:05:46;3.65;;;3.00;;
36411;SDS011;22445;52.100;5.176;2023-07-31T11:08:25;3.25;;;2.50;;
36411;SDS011;22445;52.100;5.176;2023-07-31T11:16:28;2.83;;;2.17;;
36411;SDS011;22445;52.100;5.176;2023-07-31T11:18:54;3.95;;;2.83;;
36411;SDS011;22445;52.100;5.176;2023-07-31T11:21:21;7.63;;;3.53;;
36411;SDS011;22445;52.100;5.176;2023-07-31T11:23:49;4.30;;;3.28;;
36411;SDS011;22445;52.100;5.176;2023-07-31T11:26:16;5.80;;;3.20;;
36411;SDS011;22445;52.100;5.176;2023-07-31T11:28:42;4.40;;;3.20;;
36411;SDS011;22445;52.100;5.176;2023-07-31T11:31:10;4.63;;;3.28;;
36411;SDS011;22445;52.100;5.176;2023-07-31T11:33:36;6.78;;;4.00;;
36411;SDS011;22445;52.100;5.176;2023-07-31T11:36:02;6.80;;;3.78;;
36411;SDS011;22445;52.100;5.176;2023-07-31T11:38:28;6.28;;;3.80;;
36411;SDS011;22445;52.100;5.176;2023-07-31T11:40:57;6.57;;;4.60;;
36411;SDS011;22445;52.100;5.176;2023-07-31T11:43:24;5.25;;;4.50;;
36411;SDS011;22445;52.100;5.176;2023-07-31T11:45:50;6.20;;;4.72;;
36411;SDS011;22445;52.100;5.176;2023-07-31T11:48:23;6.50;;;5.45;;
36411;SDS011;22445;52.100;5.176;2023-07-31T11:50:52;6.55;;;5.72;;
36411;SDS011;22445;52.100;5.176;2023-07-31T11:53:20;7.97;;;6.10;;
36411;SDS011;22445;52.100;5.176;2023-07-31T11:56:08;8.23;;;6.57;;
36411;SDS011;22445;52.100;5.176;2023-07-31T11:58:36;7.32;;;6.10;;
36411;SDS011;22445;52.100;5.176;2023-07-31T12:01:02;9.50;;;6.45;;
36411;SDS011;22445;52.100;5.176;2023-07-31T12:03:28;7.10;;;5.22;;
36411;SDS011;22445;52.100;5.176;2023-07-31T12:05:54;8.32;;;5.68;;
36411;SDS011;22445;52.100;5.176;2023-07-31T12:08:23;6.97;;;4.90;;
36411;SDS011;22445;52.100;5.176;2023-07-31T12:10:49;7.45;;;5.35;;
36411;SDS011;22445;52.100;5.176;2023-07-31T12:13:23;6.68;;;4.97;;
36411;SDS011;22445;52.100;5.176;2023-07-31T12:15:53;5.63;;;4.70;;
36411;SDS011;22445;52.100;5.176;2023-07-31T12:18:24;5.40;;;4.90;;
36411;SDS011;22445;52.100;5.176;2023-07-31T12:20:58;7.68;;;5.00;;
36411;SDS011;22445;52.100;5.176;2023-07-31T12:23:26;5.75;;;3.65;;
36411;SDS011;22445;52.100;5.176;2023-07-31T12:26:02;6.07;;;4.60;;
36411;SDS011;22445;52.100;5.176;2023-07-31T12:31:22;5.18;;;4.53;;
36411;SDS011;22445;52.100;5.176;2023-07-31T12:33:48;6.43;;;4.38;;
36411;SDS011;22445;52.100;5.176;2023-07-31T12:36:30;5.75;;;4.68;;
36411;SDS011;22445;52.100;5.176;2023-07-31T12:39:00;5.05;;;4.55;;
36411;SDS011;22445;52.100;5.176;2023-07-31T12:41:26;5.78;;;4.70;;
36411;SDS011;22445;52.100;5.176;2023-07-31T12:43:51;5.47;;;4.38;;
36411;SDS011;22445;52.100;5.176;2023-07-31T12:46:18;6.80;;;4.60;;
36411;SDS011;22445;52.100;5.176;2023-07-31T12:48:43;5.78;;;4.22;;
36411;SDS011;22445;52.100;5.176;2023-07-31T12:51:09;6.15;;;4.82;;
36411;SDS011;22445;52.100;5.176;2023-07-31T12:53:34;5.22;;;4.72;;
36411;SDS011;22445;52.100;5.176;2023-07-31T12:56:01;6.68;;;4.82;;
36411;SDS011;22445;52.100;5.176;2023-07-31T12:58:26;6.15;;;4.78;;
36411;SDS011;22445;52.100;5.176;2023-07-31T13:00:52;5.03;;;4.30;;
36411;SDS011;22445;52.100;5.176;2023-07-31T13:03:18;7.03;;;4.22;;
36411;SDS011;22445;52.100;5.176;2023-07-31T13:05:43;4.68;;;3.60;;
36411;SDS011;22445;52.100;5.176;2023-07-31T13:08:09;6.57;;;4.07;;
36411;SDS011;22445;52.100;5.176;2023-07-31T13:10:34;4.80;;;4.07;;
36411;SDS011;22445;52.100;5.176;2023-07-31T13:13:00;4.07;;;3.53;;
36411;SDS011;22445;52.100;5.176;2023-07-31T13:15:25;4.57;;;3.88;;
36411;SDS011;22445;52.100;5.176;2023-07-31T13:17:51;4.57;;;3.85;;
36411;SDS011;22445;52.100;5.176;2023-07-31T13:20:17;4.75;;;3.10;;
36411;SDS011;22445;52.100;5.176;2023-07-31T13:22:42;3.10;;;2.80;;
36411;SDS011;22445;52.100;5.176;2023-07-31T13:25:08;4.53;;;3.40;;
36411;SDS011;22445;52.100;5.176;2023-07-31T13:27:34;3.47;;;3.17;;
36411;SDS011;22445;52.100;5.176;2023-07-31T13:30:00;2.97;;;2.70;;
36411;SDS011;22445;52.100;5.176;2023-07-31T13:32:26;3.63;;;2.67;;
36411;SDS011;22445;52.100;5.176;2023-07-31T13:34:51;2.60;;;2.40;;
36411;SDS011;22445;52.100;5.176;2023-07-31T13:37:17;2.78;;;1.77;;
36411;SDS011;22445;52.100;5.176;2023-07-31T13:39:43;1.83;;;1.42;;
36411;SDS011;22445;52.100;5.176;2023-07-31T13:42:09;1.88;;;1.40;;
36411;SDS011;22445;52.100;5.176;2023-07-31T13:44:37;1.40;;;1.15;;
36411;SDS011;22445;52.100;5.176;2023-07-31T13:47:04;1.70;;;1.40;;
36411;SDS011;22445;52.100;5.176;2023-07-31T13:49:29;2.88;;;1.77;;
36411;SDS011;22445;52.100;5.176;2023-07-31T13:51:55;3.40;;;1.88;;
36411;SDS011;22445;52.100;5.176;2023-07-31T13:54:24;2.63;;;2.00;;
36411;SDS011;22445;52.100;5.176;2023-07-31T13:56:51;2.00;;;1.65;;
36411;SDS011;22445;52.100;5.176;2023-07-31T13:59:17;2.65;;;1.45;;
36411;SDS011;22445;52.100;5.176;2023-07-31T14:01:43;3.15;;;1.80;;
36411;SDS011;22445;52.100;5.176;2023-07-31T14:04:09;3.20;;;1.92;;
36411;SDS011;22445;52.100;5.176;2023-07-31T14:06:35;3.42;;;2.17;;
36411;SDS011;22445;52.100;5.176;2023-07-31T14:09:01;2.40;;;2.20;;
36411;SDS011;22445;52.100;5.176;2023-07-31T14:11:27;3.47;;;2.58;;
36411;SDS011;22445;52.100;5.176;2023-07-31T14:13:53;3.30;;;2.42;;
36411;SDS011;22445;52.100;5.176;2023-07-31T14:16:19;2.60;;;2.40;;
36411;SDS011;22445;52.100;5.176;2023-07-31T14:18:44;4.00;;;2.40;;
36411;SDS011;22445;52.100;5.176;2023-07-31T14:21:12;4.88;;;2.40;;
36411;SDS011;22445;52.100;5.176;2023-07-31T14:23:38;3.25;;;2.47;;
36411;SDS011;22445;52.100;5.176;2023-07-31T14:26:04;3.50;;;2.72;;
36411;SDS011;22445;52.100;5.176;2023-07-31T14:28:30;3.38;;;2.75;;
36411;SDS011;22445;52.100;5.176;2023-07-31T14:30:56;4.40;;;4.00;;
36411;SDS011;22445;52.100;5.176;2023-07-31T14:33:21;6.68;;;5.47;;
36411;SDS011;22445;52.100;5.176;2023-07-31T14:35:46;6.03;;;5.43;;
36411;SDS011;22445;52.100;5.176;2023-07-31T14:38:12;8.25;;;5.97;;
36411;SDS011;22445;52.100;5.176;2023-07-31T14:40:38;5.45;;;4.88;;
36411;SDS011;22445;52.100;5.176;2023-07-31T14:43:03;5.28;;;4.20;;
36411;SDS011;22445;52.100;5.176;2023-07-31T14:45:29;6.03;;;4.25;;
36411;SDS011;22445;52.100;5.176;2023-07-31T14:47:55;3.92;;;3.53;;
36411;SDS011;22445;52.100;5.176;2023-07-31T14:50:20;5.25;;;3.15;;
36411;SDS011;22445;52.100;5.176;2023-07-31T14:52:47;4.45;;;3.25;;
36411;SDS011;22445;52.100;5.176;2023-07-31T14:55:13;3.60;;;3.22;;
36411;SDS011;22445;52.100;5.176;2023-07-31T14:57:39;6.80;;;3.30;;